Time;durP1;ratioP1;P1;durP2;ratioP2;P2;SDS_P1;SDS_P2;PMS_P1;PMS_P2;Temp;Humidity;BMP_temperature;BMP_pressure;BME280_temperature;BME280_humidity;BME280_pressure;Samples;Min_cycle;Max_cycle;Signal;HPM_P1;HPM_P2
2022/03/13 00:02:14;;;;;;;22.83;13.37;;;9.20;99.90;;;;;;5053341;28;20116;-42
2022/03/13 00:04:40;;;;;;;25.40;14.55;;;9.20;99.90;;;;;;5053569;28;20092;-41
2022/03/13 00:07:16;;;;;;;24.35;14.32;;;9.10;99.90;;;;;;5053001;28;20562;-40
2022/03/13 00:09:44;;;;;;;22.20;14.63;;;9.20;99.90;;;;;;5053015;28;20044;-40
2022/03/13 00:12:14;;;;;;;22.98;14.13;;;9.10;99.90;;;;;;5052874;28;20083;-47
2022/03/13 00:14:42;;;;;;;26.20;15.07;;;9.10;99.90;;;;;;5053253;28;20045;-39
2022/03/13 00:17:11;;;;;;;23.52;14.73;;;9.10;99.90;;;;;;5052831;28;20033;-40
2022/03/13 00:19:38;;;;;;;21.52;13.50;;;9.10;99.90;;;;;;5052814;28;20045;-41
2022/03/13 00:22:05;;;;;;;19.40;13.52;;;9.10;99.90;;;;;;5045479;28;20442;-41
2022/03/13 00:24:32;;;;;;;23.58;14.30;;;9.10;99.90;;;;;;5048304;28;20055;-40
2022/03/13 00:27:00;;;;;;;21.80;13.63;;;9.10;99.90;;;;;;5052904;28;20427;-41
2022/03/13 00:29:26;;;;;;;20.25;12.63;;;9.10;99.90;;;;;;5052654;28;20033;-42
2022/03/13 00:31:52;;;;;;;19.95;13.45;;;9.10;99.90;;;;;;5052096;28;20431;-41
2022/03/13 00:34:18;;;;;;;18.88;12.70;;;9.10;99.90;;;;;;5045570;28;20057;-43
2022/03/13 00:36:44;;;;;;;18.15;12.35;;;9.10;99.90;;;;;;5051719;28;20036;-42
2022/03/13 00:39:11;;;;;;;18.80;13.05;;;9.20;99.90;;;;;;5052647;28;20039;-40
2022/03/13 00:41:37;;;;;;;21.42;13.45;;;9.10;99.90;;;;;;5052271;28;20037;-42
2022/03/13 00:44:04;;;;;;;17.92;12.50;;;9.10;99.90;;;;;;5052116;28;20040;-42
2022/03/13 00:46:30;;;;;;;19.63;13.15;;;9.20;99.90;;;;;;5052090;28;20040;-41
2022/03/13 00:48:56;;;;;;;20.98;12.75;;;9.20;99.90;;;;;;5051920;28;20029;-41
2022/03/13 00:51:21;;;;;;;19.38;12.98;;;9.20;99.90;;;;;;5051980;28;20044;-45
2022/03/13 00:53:47;;;;;;;22.70;12.30;;;9.20;99.90;;;;;;5051794;28;20045;-42
2022/03/13 00:56:13;;;;;;;19.55;12.55;;;9.20;99.90;;;;;;5051430;28;20086;-40
2022/03/13 00:58:40;;;;;;;21.23;13.68;;;9.20;99.90;;;;;;5050476;28;20538;-42
2022/03/13 01:01:06;;;;;;;21.88;13.50;;;9.20;99.90;;;;;;5050278;28;20089;-39
2022/03/13 01:03:35;;;;;;;20.48;12.98;;;9.20;99.90;;;;;;5051959;28;20090;-41
2022/03/13 01:06:02;;;;;;;21.25;12.70;;;9.20;99.90;;;;;;5052049;28;20083;-40
2022/03/13 01:08:28;;;;;;;18.42;12.15;;;9.20;99.90;;;;;;5050850;28;20025;-43
2022/03/13 01:10:55;;;;;;;22.00;13.57;;;9.20;99.90;;;;;;5050472;28;20033;-42
2022/03/13 01:13:21;;;;;;;20.45;13.13;;;9.10;99.90;;;;;;5051837;28;20036;-41
2022/03/13 01:15:49;;;;;;;19.70;13.32;;;9.10;99.90;;;;;;5051698;28;20037;-40
2022/03/13 01:18:15;;;;;;;23.30;13.80;;;9.00;99.90;;;;;;5050209;28;20036;-40
2022/03/13 01:20:41;;;;;;;21.48;12.95;;;9.00;99.90;;;;;;5051548;28;20063;-40
2022/03/13 01:23:11;;;;;;;21.13;12.68;;;9.00;99.90;;;;;;5050321;28;20041;-40
2022/03/13 01:25:40;;;;;;;21.23;13.63;;;8.90;99.90;;;;;;5051481;28;20041;-42
2022/03/13 01:28:06;;;;;;;21.25;13.35;;;8.90;99.90;;;;;;5051669;28;20392;-40
2022/03/13 01:30:31;;;;;;;20.65;13.43;;;8.80;99.90;;;;;;5051306;28;20408;-40
2022/03/13 01:32:57;;;;;;;20.67;13.63;;;8.80;99.90;;;;;;5049455;28;20094;-42
2022/03/13 01:35:24;;;;;;;20.77;13.52;;;8.80;99.90;;;;;;5051068;28;20092;-44
2022/03/13 01:37:52;;;;;;;19.55;13.48;;;8.70;99.90;;;;;;5050497;28;20114;-44
2022/03/13 01:40:21;;;;;;;22.23;14.15;;;8.70;99.90;;;;;;5051033;28;20037;-40
2022/03/13 01:42:48;;;;;;;22.90;14.85;;;8.70;99.90;;;;;;5051155;28;20056;-41
2022/03/13 01:45:23;;;;;;;21.73;14.40;;;8.60;99.90;;;;;;5051385;28;20078;-44
2022/03/13 01:47:48;;;;;;;20.70;14.20;;;8.60;99.90;;;;;;5049888;28;20033;-41
2022/03/13 01:50:15;;;;;;;23.35;13.80;;;8.60;99.90;;;;;;5050860;28;20059;-42
2022/03/13 01:52:45;;;;;;;21.58;13.95;;;8.60;99.90;;;;;;5051434;28;20036;-41
2022/03/13 01:55:11;;;;;;;22.10;14.68;;;8.60;99.90;;;;;;5050673;28;20118;-41
2022/03/13 01:57:37;;;;;;;23.15;14.70;;;8.60;99.90;;;;;;5049873;28;20045;-41
2022/03/13 02:00:07;;;;;;;21.77;14.43;;;8.70;99.90;;;;;;5050532;28;20132;-39
2022/03/13 02:02:33;;;;;;;22.75;14.73;;;8.60;99.90;;;;;;5050934;28;20496;-39
2022/03/13 02:04:59;;;;;;;22.48;14.10;;;8.50;99.90;;;;;;5050844;28;20241;-40
2022/03/13 02:07:28;;;;;;;20.77;13.48;;;8.60;99.90;;;;;;5050915;28;20060;-42
2022/03/13 02:09:55;;;;;;;24.45;14.52;;;8.60;99.90;;;;;;5051006;28;20515;-39
2022/03/13 02:12:23;;;;;;;22.42;14.45;;;8.50;99.90;;;;;;5050342;28;20044;-38
2022/03/13 02:14:50;;;;;;;24.13;14.93;;;8.50;99.90;;;;;;5050683;28;20076;-42
2022/03/13 02:17:33;;;;;;;25.48;15.05;;;8.50;99.90;;;;;;5050216;28;20120;-40
2022/03/13 02:19:58;;;;;;;25.20;15.05;;;8.50;99.90;;;;;;5050334;28;20041;-42
2022/03/13 02:22:25;;;;;;;21.35;14.23;;;8.50;99.90;;;;;;5050053;28;20040;-40
2022/03/13 02:24:51;;;;;;;22.83;15.13;;;8.40;99.90;;;;;;5050425;28;20037;-40
2022/03/13 02:27:21;;;;;;;24.95;16.08;;;8.40;99.90;;;;;;5050061;28;20044;-39
2022/03/13 02:29:47;;;;;;;25.20;14.85;;;8.40;99.90;;;;;;5048235;28;20056;-39
2022/03/13 02:32:13;;;;;;;23.40;15.05;;;8.40;99.90;;;;;;5048980;28;20032;-41
2022/03/13 02:34:39;;;;;;;22.55;14.77;;;8.60;99.90;;;;;;5049732;28;20068;-42
2022/03/13 02:37:14;;;;;;;23.98;14.50;;;8.40;99.90;;;;;;5050031;28;20400;-40
2022/03/13 02:39:40;;;;;;;24.25;15.25;;;8.40;99.90;;;;;;5050012;28;20139;-42
2022/03/13 02:42:07;;;;;;;23.40;15.82;;;8.40;99.90;;;;;;5050430;28;20104;-39
2022/03/13 02:44:34;;;;;;;23.58;14.27;;;8.40;99.90;;;;;;5050170;28;20037;-41
2022/03/13 02:47:03;;;;;;;25.50;15.10;;;8.40;99.90;;;;;;5050441;28;20167;-40
2022/03/13 02:49:30;;;;;;;26.83;14.88;;;8.40;99.90;;;;;;5050025;28;20116;-40
2022/03/13 02:51:59;;;;;;;23.77;15.25;;;8.40;99.90;;;;;;5050246;28;20043;-42
2022/03/13 02:54:25;;;;;;;24.23;14.98;;;8.40;99.90;;;;;;5050041;28;20051;-43
2022/03/13 02:56:51;;;;;;;22.92;14.75;;;8.40;99.90;;;;;;5049871;28;20041;-41
2022/03/13 02:59:18;;;;;;;21.63;14.73;;;8.40;99.90;;;;;;5050015;28;20045;-41
2022/03/13 03:01:44;;;;;;;22.35;13.95;;;8.40;99.90;;;;;;5049702;28;20468;-42
2022/03/13 03:04:10;;;;;;;23.42;15.23;;;8.40;99.90;;;;;;5050085;28;20037;-41
2022/03/13 03:06:39;;;;;;;23.50;14.95;;;8.40;99.90;;;;;;5050014;28;20087;-40
2022/03/13 03:09:05;;;;;;;26.15;15.75;;;8.40;99.90;;;;;;5049174;28;20098;-43
2022/03/13 03:11:33;;;;;;;24.45;15.23;;;8.40;99.90;;;;;;5049991;28;20481;-40
2022/03/13 03:14:02;;;;;;;22.08;14.90;;;8.40;99.90;;;;;;5049850;28;20037;-40
2022/03/13 03:16:29;;;;;;;24.60;14.82;;;8.40;99.90;;;;;;5049820;28;20075;-41
2022/03/13 03:18:56;;;;;;;21.35;13.38;;;8.40;99.90;;;;;;5048721;28;20044;-40
2022/03/13 03:21:22;;;;;;;21.58;14.25;;;8.40;99.90;;;;;;5049425;28;20361;-41
2022/03/13 03:23:48;;;;;;;22.00;14.32;;;8.30;99.90;;;;;;5047374;28;20032;-42
2022/03/13 03:26:13;;;;;;;22.73;14.23;;;8.30;99.90;;;;;;5049616;28;20170;-42
2022/03/13 03:28:39;;;;;;;22.63;13.20;;;8.30;99.90;;;;;;5049691;28;20036;-40
2022/03/13 03:31:04;;;;;;;24.40;15.23;;;8.30;99.90;;;;;;5064623;28;20132;-42
2022/03/13 03:33:30;;;;;;;22.02;14.15;;;8.20;99.90;;;;;;5048173;28;20124;-44
2022/03/13 03:35:56;;;;;;;23.67;14.77;;;8.20;99.90;;;;;;5049450;28;20067;-43
2022/03/13 03:38:22;;;;;;;25.98;15.27;;;8.10;99.90;;;;;;5049714;28;20094;-41
2022/03/13 03:40:48;;;;;;;24.95;14.35;;;8.10;99.90;;;;;;5048279;28;20383;-41
2022/03/13 03:43:13;;;;;;;22.95;15.02;;;8.10;99.90;;;;;;5049387;28;20135;-43
2022/03/13 03:45:39;;;;;;;23.02;14.77;;;8.00;99.90;;;;;;5049652;28;20033;-42
2022/03/13 03:48:05;;;;;;;22.20;14.70;;;8.00;99.90;;;;;;5049351;28;20071;-41
2022/03/13 03:50:31;;;;;;;22.25;13.73;;;7.90;99.90;;;;;;5049438;28;20064;-40
2022/03/13 03:52:57;;;;;;;20.75;14.50;;;7.90;99.90;;;;;;5049503;28;20068;-41
2022/03/13 03:55:24;;;;;;;24.15;15.20;;;7.80;99.90;;;;;;5049725;28;20029;-42
2022/03/13 03:57:51;;;;;;;24.88;14.73;;;7.80;99.90;;;;;;5049589;28;20169;-39
2022/03/13 04:00:18;;;;;;;25.30;14.65;;;7.90;99.90;;;;;;5048945;28;20036;-41
2022/03/13 04:02:44;;;;;;;21.25;14.90;;;7.70;99.90;;;;;;5048111;28;20549;-41
2022/03/13 04:05:10;;;;;;;22.60;15.50;;;7.70;99.90;;;;;;5049427;28;20032;-40
2022/03/13 04:07:36;;;;;;;23.52;15.40;;;7.70;99.90;;;;;;5049087;28;20112;-41
2022/03/13 04:10:04;;;;;;;22.02;14.52;;;7.70;99.90;;;;;;5049240;28;20515;-41
2022/03/13 04:12:30;;;;;;;23.13;14.80;;;7.70;99.90;;;;;;5047552;28;20041;-45
2022/03/13 04:14:56;;;;;;;22.02;15.23;;;7.60;99.90;;;;;;5049422;28;20119;-42
2022/03/13 04:17:22;;;;;;;23.63;15.05;;;7.60;99.90;;;;;;5049416;28;20129;-41
2022/03/13 04:19:47;;;;;;;24.40;15.50;;;7.60;99.90;;;;;;5050008;28;20120;-40
2022/03/13 04:22:15;;;;;;;23.42;15.05;;;7.60;99.90;;;;;;5053067;28;20098;-40
2022/03/13 04:24:41;;;;;;;23.00;15.10;;;7.60;99.90;;;;;;5052813;28;20151;-42
2022/03/13 04:27:07;;;;;;;23.45;15.35;;;7.50;99.90;;;;;;5052634;28;20617;-41
2022/03/13 04:29:34;;;;;;;21.48;14.15;;;7.50;99.90;;;;;;5052805;28;20451;-40
2022/03/13 04:32:00;;;;;;;26.15;14.98;;;7.50;99.90;;;;;;5052165;28;20037;-41
2022/03/13 04:34:25;;;;;;;22.27;15.05;;;7.50;99.90;;;;;;5052453;28;20175;-42
2022/03/13 04:36:51;;;;;;;21.92;14.82;;;7.50;99.90;;;;;;5052715;28;20171;-42
2022/03/13 04:39:17;;;;;;;21.83;14.38;;;7.50;99.90;;;;;;5052355;28;20037;-41
2022/03/13 04:41:44;;;;;;;24.58;15.13;;;7.50;99.90;;;;;;5052395;28;20048;-40
2022/03/13 04:44:12;;;;;;;21.85;14.82;;;7.40;99.90;;;;;;5052512;28;20045;-41
2022/03/13 04:46:38;;;;;;;23.45;15.02;;;7.50;99.90;;;;;;5052641;28;20149;-40
2022/03/13 04:49:04;;;;;;;23.33;14.75;;;7.40;99.90;;;;;;5052228;28;20065;-42
2022/03/13 04:51:29;;;;;;;22.02;14.05;;;7.40;99.90;;;;;;5052204;28;20048;-40
2022/03/13 04:53:55;;;;;;;23.30;15.05;;;7.40;99.90;;;;;;5052160;28;20033;-42
2022/03/13 04:56:21;;;;;;;23.65;14.63;;;7.40;99.90;;;;;;5052303;28;20037;-41
2022/03/13 04:58:46;;;;;;;22.33;14.45;;;7.50;99.90;;;;;;5052260;28;20033;-41
2022/03/13 05:01:12;;;;;;;23.60;14.18;;;7.50;99.90;;;;;;5051473;28;20033;-44
2022/03/13 05:03:38;;;;;;;25.48;15.43;;;7.60;99.90;;;;;;5052159;28;20049;-41
2022/03/13 05:06:05;;;;;;;19.55;12.70;;;7.60;99.90;;;;;;5052077;28;20099;-41
2022/03/13 05:08:31;;;;;;;22.58;14.30;;;7.60;99.90;;;;;;5052201;28;20039;-41
2022/03/13 05:10:58;;;;;;;22.77;14.40;;;7.60;99.90;;;;;;5052064;28;20043;-40
2022/03/13 05:13:24;;;;;;;23.00;13.30;;;7.60;99.90;;;;;;5052155;28;20127;-39
2022/03/13 05:15:52;;;;;;;20.90;13.93;;;7.60;99.90;;;;;;5052082;28;20068;-40
2022/03/13 05:18:18;;;;;;;22.92;14.05;;;7.60;99.90;;;;;;5051788;28;20404;-40
2022/03/13 05:20:44;;;;;;;23.00;14.00;;;7.60;99.90;;;;;;5051564;28;20052;-41
2022/03/13 05:23:10;;;;;;;22.42;13.75;;;7.60;99.90;;;;;;5051651;28;20485;-43
2022/03/13 05:25:37;;;;;;;23.88;13.80;;;7.60;99.90;;;;;;5051379;28;20029;-40
2022/03/13 05:28:05;;;;;;;19.38;13.10;;;7.60;99.90;;;;;;5051678;28;20033;-41
2022/03/13 05:30:30;;;;;;;21.40;12.82;;;7.60;99.90;;;;;;5050750;28;20032;-40
2022/03/13 05:32:57;;;;;;;23.00;13.90;;;7.70;99.90;;;;;;5051057;28;20039;-40
2022/03/13 05:35:23;;;;;;;23.02;13.45;;;7.70;99.90;;;;;;5051250;28;20125;-43
2022/03/13 05:37:51;;;;;;;19.95;12.80;;;7.70;99.90;;;;;;5051278;28;20132;-42
2022/03/13 05:40:19;;;;;;;20.88;13.38;;;7.70;99.90;;;;;;5051553;28;20044;-41
2022/03/13 05:42:49;;;;;;;21.63;13.38;;;7.70;99.90;;;;;;5049581;28;20055;-44
2022/03/13 05:45:17;;;;;;;22.25;13.20;;;7.70;99.90;;;;;;5051102;28;20044;-42
2022/03/13 05:47:48;;;;;;;20.63;12.40;;;7.70;99.90;;;;;;5050978;28;20124;-43
2022/03/13 05:50:14;;;;;;;20.77;12.43;;;7.60;99.90;;;;;;5051333;28;20040;-41
2022/03/13 05:52:41;;;;;;;22.38;13.73;;;7.60;99.90;;;;;;5050836;28;20037;-40
2022/03/13 05:55:08;;;;;;;21.83;13.80;;;7.60;99.90;;;;;;5051189;28;20036;-44
2022/03/13 05:57:34;;;;;;;21.60;12.95;;;7.60;99.90;;;;;;5050802;28;20110;-41
2022/03/13 06:00:00;;;;;;;20.23;12.80;;;7.60;99.90;;;;;;5050899;28;20084;-42
2022/03/13 06:02:26;;;;;;;20.88;13.27;;;7.60;99.90;;;;;;5050570;28;20033;-41
2022/03/13 06:04:52;;;;;;;21.70;12.63;;;7.60;99.90;;;;;;5051156;28;20025;-41
2022/03/13 06:07:19;;;;;;;21.42;13.00;;;7.60;99.90;;;;;;5050434;28;20045;-41
2022/03/13 06:09:44;;;;;;;20.17;13.18;;;7.60;99.90;;;;;;5050836;28;20037;-43
2022/03/13 06:12:10;;;;;;;21.27;13.77;;;7.60;99.90;;;;;;5049134;28;20633;-40
2022/03/13 06:14:36;;;;;;;21.05;13.63;;;7.60;99.90;;;;;;5050756;28;20483;-43
2022/03/13 06:17:02;;;;;;;22.27;13.85;;;7.40;99.90;;;;;;5050360;28;20037;-41
2022/03/13 06:19:28;;;;;;;22.23;13.93;;;7.50;99.90;;;;;;5048624;28;20060;-42
2022/03/13 06:21:53;;;;;;;23.27;14.60;;;7.40;99.90;;;;;;5050346;28;20080;-40
2022/03/13 06:24:19;;;;;;;22.27;14.40;;;7.50;99.90;;;;;;5049045;28;20073;-40
2022/03/13 06:26:45;;;;;;;21.35;14.13;;;7.40;99.90;;;;;;5050325;28;20138;-40
2022/03/13 06:29:14;;;;;;;23.55;14.10;;;7.30;99.90;;;;;;5050207;28;20064;-41
2022/03/13 06:31:40;;;;;;;20.52;13.63;;;7.30;99.90;;;;;;5049806;28;20528;-41
2022/03/13 06:34:07;;;;;;;20.05;13.60;;;7.30;99.90;;;;;;5050294;28;20484;-40
2022/03/13 06:36:34;;;;;;;23.02;14.40;;;7.30;99.90;;;;;;5049656;28;20091;-41
2022/03/13 06:39:00;;;;;;;22.95;14.60;;;7.30;99.90;;;;;;5050594;28;20040;-42
2022/03/13 06:41:27;;;;;;;21.73;13.90;;;7.30;99.90;;;;;;5050217;28;20095;-42
2022/03/13 06:43:53;;;;;;;22.00;14.57;;;7.30;99.90;;;;;;5048197;28;20119;-41
2022/03/13 06:46:18;;;;;;;21.77;14.10;;;7.30;99.90;;;;;;5050109;28;20179;-41
2022/03/13 06:48:44;;;;;;;22.80;14.52;;;7.40;99.90;;;;;;5049913;28;20037;-43
2022/03/13 06:51:10;;;;;;;21.25;14.10;;;7.30;99.90;;;;;;5048887;28;20063;-38
2022/03/13 06:53:36;;;;;;;22.30;14.75;;;7.20;99.90;;;;;;5050200;28;20071;-41
2022/03/13 06:56:03;;;;;;;22.80;13.75;;;7.30;99.90;;;;;;5050182;28;20048;-39
2022/03/13 06:58:29;;;;;;;20.65;14.02;;;7.30;99.90;;;;;;5050082;28;20039;-42
2022/03/13 07:00:54;;;;;;;21.95;13.95;;;7.30;99.90;;;;;;5048536;28;20044;-42
2022/03/13 07:03:20;;;;;;;22.50;14.40;;;7.30;99.90;;;;;;5049963;28;20094;-43
2022/03/13 07:05:46;;;;;;;20.73;14.38;;;7.30;99.90;;;;;;5048322;28;20056;-39
2022/03/13 07:08:13;;;;;;;22.25;14.55;;;7.30;99.90;;;;;;5049973;28;20076;-41
2022/03/13 07:10:39;;;;;;;22.58;14.25;;;7.30;99.90;;;;;;5049740;28;20041;-40
2022/03/13 07:13:05;;;;;;;22.42;13.55;;;7.30;99.90;;;;;;5050060;28;20132;-41
2022/03/13 07:15:31;;;;;;;22.70;14.05;;;7.40;99.90;;;;;;5049854;28;20194;-44
2022/03/13 07:17:58;;;;;;;19.35;13.95;;;7.40;99.90;;;;;;5050124;28;20392;-44
2022/03/13 07:20:24;;;;;;;21.17;13.63;;;7.40;99.90;;;;;;5049830;28;20037;-41
2022/03/13 07:22:50;;;;;;;21.70;13.18;;;7.40;99.90;;;;;;5065197;28;20044;-42
2022/03/13 07:25:16;;;;;;;22.38;13.75;;;7.40;99.90;;;;;;5050011;28;20448;-44
2022/03/13 07:27:43;;;;;;;21.55;12.82;;;7.40;99.90;;;;;;5049961;28;20051;-42
2022/03/13 07:30:14;;;;;;;21.63;13.52;;;7.40;99.90;;;;;;5042015;28;20041;-42
2022/03/13 07:32:40;;;;;;;19.27;12.93;;;7.40;99.90;;;;;;5042901;28;20044;-40
2022/03/13 07:35:08;;;;;;;19.92;13.55;;;7.40;99.90;;;;;;5040922;28;20052;-42
2022/03/13 07:37:33;;;;;;;20.08;13.77;;;7.50;99.90;;;;;;5042057;28;20103;-42
2022/03/13 07:40:01;;;;;;;20.60;12.88;;;7.50;99.90;;;;;;5040890;28;20037;-41
2022/03/13 07:42:27;;;;;;;25.42;14.00;;;7.50;99.90;;;;;;5039725;28;20358;-41
2022/03/13 07:44:52;;;;;;;22.35;14.48;;;7.50;99.90;;;;;;5042170;28;20032;-42
2022/03/13 07:47:18;;;;;;;18.77;12.73;;;7.50;99.90;;;;;;5039785;28;20044;-44
2022/03/13 07:49:44;;;;;;;21.60;13.85;;;7.60;99.90;;;;;;5041537;28;20116;-40
2022/03/13 07:52:10;;;;;;;22.52;13.85;;;7.60;99.90;;;;;;5041075;28;20115;-45
2022/03/13 07:54:36;;;;;;;21.13;13.57;;;7.60;99.90;;;;;;5038980;28;20033;-42
2022/03/13 07:57:02;;;;;;;20.05;13.52;;;7.60;99.90;;;;;;5042210;28;20465;-43
2022/03/13 07:59:28;;;;;;;21.63;13.60;;;7.70;99.90;;;;;;5043412;28;20029;-41
2022/03/13 08:01:54;;;;;;;20.05;13.10;;;7.70;99.90;;;;;;5044371;28;20480;-44
2022/03/13 08:04:19;;;;;;;22.30;13.00;;;7.70;99.90;;;;;;5045068;28;20033;-43
2022/03/13 08:06:45;;;;;;;20.50;13.15;;;7.70;99.90;;;;;;5042320;28;20037;-42
2022/03/13 08:09:11;;;;;;;19.73;12.85;;;7.80;99.90;;;;;;5041206;28;20065;-42
2022/03/13 08:11:38;;;;;;;20.15;13.77;;;7.80;99.90;;;;;;5043755;28;20512;-41
2022/03/13 08:14:07;;;;;;;22.55;13.65;;;7.90;99.90;;;;;;5045091;28;20037;-46
2022/03/13 08:16:33;;;;;;;21.67;13.85;;;7.90;99.90;;;;;;5043184;28;20057;-43
2022/03/13 08:18:59;;;;;;;20.98;13.25;;;8.00;99.90;;;;;;5037069;28;20048;-41
2022/03/13 08:21:26;;;;;;;21.88;13.70;;;8.20;99.90;;;;;;5041776;28;20040;-44
2022/03/13 08:23:52;;;;;;;23.17;13.50;;;8.40;99.90;;;;;;5043569;28;20040;-43
2022/03/13 08:26:17;;;;;;;20.75;13.05;;;8.40;99.90;;;;;;5042486;28;20305;-41
2022/03/13 08:28:44;;;;;;;21.30;13.32;;;8.70;99.90;;;;;;5043384;28;20029;-40
2022/03/13 08:31:10;;;;;;;21.23;13.05;;;8.60;99.90;;;;;;5038927;28;20036;-43
2022/03/13 08:33:36;;;;;;;19.38;12.93;;;8.80;99.90;;;;;;5042493;28;20493;-42
2022/03/13 08:36:04;;;;;;;18.83;12.18;;;8.80;99.90;;;;;;5043877;28;20056;-42
2022/03/13 08:38:30;;;;;;;20.52;12.65;;;8.80;99.90;;;;;;5042122;28;20037;-42
2022/03/13 08:40:56;;;;;;;19.17;12.90;;;8.90;99.90;;;;;;5044525;28;20033;-44
2022/03/13 08:43:22;;;;;;;18.88;12.30;;;9.00;99.90;;;;;;5043575;28;20041;-44
2022/03/13 08:45:48;;;;;;;19.65;13.02;;;9.10;99.90;;;;;;5042645;28;20047;-43
2022/03/13 08:48:14;;;;;;;19.08;12.68;;;9.20;99.90;;;;;;5043201;28;20033;-43
2022/03/13 08:50:40;;;;;;;23.67;13.20;;;9.30;99.90;;;;;;5043725;28;20044;-44
2022/03/13 08:53:07;;;;;;;20.30;12.30;;;9.30;99.90;;;;;;5044304;28;20044;-45
2022/03/13 08:55:33;;;;;;;20.15;12.30;;;9.50;99.90;;;;;;5043701;28;20575;-44
2022/03/13 08:57:58;;;;;;;19.30;12.43;;;9.50;99.90;;;;;;5043806;28;20452;-44
2022/03/13 09:00:26;;;;;;;19.38;12.77;;;9.50;99.90;;;;;;5042195;28;20106;-43
2022/03/13 09:02:53;;;;;;;18.05;11.63;;;9.60;99.90;;;;;;5043121;28;20924;-41
2022/03/13 09:05:20;;;;;;;22.42;12.82;;;9.70;99.90;;;;;;5039167;28;20044;-43
2022/03/13 09:07:46;;;;;;;21.88;12.57;;;9.90;99.90;;;;;;5042470;28;20025;-43
2022/03/13 09:10:12;;;;;;;18.85;11.45;;;10.20;99.90;;;;;;5042488;28;20810;-42
2022/03/13 09:12:38;;;;;;;22.48;12.65;;;10.20;99.90;;;;;;5042582;28;20056;-42
2022/03/13 09:15:06;;;;;;;19.10;12.65;;;10.30;99.90;;;;;;5043026;28;20045;-42
2022/03/13 09:17:32;;;;;;;19.33;12.07;;;10.50;99.90;;;;;;5044237;28;20488;-43
2022/03/13 09:19:58;;;;;;;20.55;11.98;;;10.50;99.90;;;;;;5043455;28;20064;-41
2022/03/13 09:22:30;;;;;;;17.83;12.00;;;10.60;99.90;;;;;;5043518;28;20037;-43
2022/03/13 09:24:57;;;;;;;18.38;11.80;;;10.70;99.90;;;;;;5043774;28;20110;-41
2022/03/13 09:27:27;;;;;;;23.60;12.27;;;10.80;99.90;;;;;;5043475;28;20064;-41
2022/03/13 09:29:54;;;;;;;18.65;12.38;;;11.00;99.90;;;;;;5042409;28;20029;-40
2022/03/13 09:32:22;;;;;;;17.98;11.98;;;11.10;99.90;;;;;;5042746;28;20084;-42
2022/03/13 09:34:48;;;;;;;17.70;11.75;;;11.30;99.90;;;;;;5043683;28;20044;-42
2022/03/13 09:37:14;;;;;;;19.15;12.48;;;11.30;99.90;;;;;;5043626;28;20493;-45
2022/03/13 09:39:40;;;;;;;20.77;13.15;;;11.50;99.90;;;;;;5043192;28;21014;-40
2022/03/13 09:42:06;;;;;;;20.33;12.35;;;11.60;99.90;;;;;;5042672;28;20044;-42
2022/03/13 09:44:31;;;;;;;20.13;12.25;;;11.80;99.90;;;;;;5042438;28;20500;-42
2022/03/13 09:46:57;;;;;;;20.80;12.20;;;11.80;98.70;;;;;;5043504;28;20399;-40
2022/03/13 09:49:24;;;;;;;24.60;12.75;;;12.00;99.90;;;;;;5043500;28;20033;-43
2022/03/13 09:51:51;;;;;;;18.25;11.68;;;12.10;99.30;;;;;;5042933;28;20064;-44
2022/03/13 09:54:17;;;;;;;19.70;12.23;;;12.20;98.80;;;;;;5040584;28;20037;-45
2022/03/13 09:56:42;;;;;;;22.30;12.10;;;12.30;98.50;;;;;;5039620;28;20040;-42
2022/03/13 09:59:08;;;;;;;17.98;12.02;;;12.40;97.90;;;;;;5041531;28;20044;-41
2022/03/13 10:01:34;;;;;;;19.35;12.15;;;12.50;98.10;;;;;;5041043;28;20049;-41
2022/03/13 10:04:00;;;;;;;17.77;10.80;;;12.50;97.80;;;;;;5041204;28;20025;-43
2022/03/13 10:06:26;;;;;;;18.08;11.68;;;12.50;97.90;;;;;;5040666;28;20126;-41
2022/03/13 10:08:52;;;;;;;18.60;11.65;;;12.50;98.20;;;;;;5039243;28;20037;-41
2022/03/13 10:11:34;;;;;;;16.83;12.00;;;12.60;97.90;;;;;;5034748;28;20128;-41
2022/03/13 10:14:07;;;;;;;22.73;13.30;;;12.60;97.10;;;;;;5035871;28;20492;-42
2022/03/13 10:16:38;;;;;;;19.77;12.30;;;12.70;97.60;;;;;;5035491;28;20045;-40
2022/03/13 10:19:17;;;;;;;21.35;12.80;;;12.70;97.20;;;;;;5033687;28;20040;-43
2022/03/13 10:22:06;;;;;;;17.83;11.65;;;12.80;96.70;;;;;;5030746;28;20053;-45
2022/03/13 10:24:46;;;;;;;21.52;12.65;;;13.00;97.90;;;;;;5034258;28;20162;-42
2022/03/13 10:27:17;;;;;;;24.48;12.30;;;13.30;97.80;;;;;;5035146;28;20036;-43
2022/03/13 10:29:45;;;;;;;22.92;12.63;;;13.40;98.20;;;;;;5039596;28;20035;-41
2022/03/13 10:32:12;;;;;;;26.50;13.48;;;13.40;97.30;;;;;;5039075;28;20041;-43
2022/03/13 10:34:38;;;;;;;21.98;12.85;;;13.40;98.90;;;;;;5035577;28;20028;-43
2022/03/13 10:37:04;;;;;;;19.83;12.50;;;13.40;97.80;;;;;;5040677;28;20508;-45
2022/03/13 10:39:31;;;;;;;18.85;12.68;;;13.40;98.10;;;;;;5038901;28;20128;-42
2022/03/13 10:42:02;;;;;;;22.08;13.45;;;13.50;98.10;;;;;;5036404;28;20083;-43
2022/03/13 10:44:34;;;;;;;20.63;13.13;;;13.50;98.80;;;;;;5036927;28;20040;-42
2022/03/13 10:47:10;;;;;;;21.02;13.25;;;13.50;97.80;;;;;;5039030;28;20044;-44
2022/03/13 10:49:44;;;;;;;22.10;13.50;;;13.50;98.20;;;;;;5042115;28;20163;-41
2022/03/13 10:52:29;;;;;;;20.42;13.77;;;13.30;98.10;;;;;;5041934;28;20041;-41
2022/03/13 10:55:21;;;;;;;20.65;13.77;;;13.30;98.20;;;;;;5040455;28;20033;-42
2022/03/13 10:57:52;;;;;;;20.13;13.43;;;13.40;97.90;;;;;;5041053;28;20488;-43
2022/03/13 11:00:18;;;;;;;20.40;12.68;;;13.30;98.30;;;;;;5041869;28;20040;-42
2022/03/13 11:02:44;;;;;;;20.60;12.27;;;13.30;97.40;;;;;;5040326;28;20029;-41
2022/03/13 11:05:10;;;;;;;18.70;12.60;;;13.30;97.30;;;;;;5041174;28;20700;-41
2022/03/13 11:07:36;;;;;;;17.67;12.57;;;13.40;97.30;;;;;;5040456;28;20040;-45
2022/03/13 11:10:03;;;;;;;21.25;12.88;;;13.50;98.50;;;;;;5038891;28;20048;-42
2022/03/13 11:12:30;;;;;;;20.42;12.98;;;13.60;98.20;;;;;;5040179;28;20048;-46
2022/03/13 11:15:00;;;;;;;21.73;13.18;;;13.60;96.90;;;;;;5038563;28;20489;-43
2022/03/13 11:17:32;;;;;;;22.63;13.23;;;13.70;96.70;;;;;;5039805;28;20040;-40
2022/03/13 11:20:00;;;;;;;19.60;13.00;;;13.80;97.30;;;;;;5038687;28;20033;-43
2022/03/13 11:22:28;;;;;;;20.08;13.27;;;13.70;96.80;;;;;;5039624;28;20045;-42
2022/03/13 11:25:00;;;;;;;21.13;13.43;;;13.90;97.50;;;;;;5040848;28;20485;-43
2022/03/13 11:27:27;;;;;;;20.42;13.52;;;13.90;97.90;;;;;;5039890;28;20133;-43
2022/03/13 11:29:54;;;;;;;20.95;12.70;;;13.90;97.70;;;;;;5041959;28;20037;-40
2022/03/13 11:32:29;;;;;;;19.02;12.25;;;14.00;96.80;;;;;;5043434;28;20032;-41
2022/03/13 11:35:23;;;;;;;19.75;13.38;;;14.20;96.60;;;;;;5043643;28;20041;-44
2022/03/13 11:37:50;;;;;;;19.15;12.27;;;14.50;97.00;;;;;;5044551;28;20103;-44
2022/03/13 11:40:18;;;;;;;17.92;12.48;;;14.60;95.70;;;;;;5044191;28;20362;-42
2022/03/13 11:42:47;;;;;;;21.25;13.98;;;14.80;95.80;;;;;;5043501;28;20036;-43
2022/03/13 11:45:27;;;;;;;20.63;12.27;;;14.90;94.90;;;;;;5042699;28;20412;-43
2022/03/13 11:47:53;;;;;;;19.92;12.93;;;14.90;95.30;;;;;;5044090;28;20033;-41
2022/03/13 11:50:19;;;;;;;19.50;13.32;;;14.80;95.90;;;;;;5044509;28;20436;-43
2022/03/13 11:52:44;;;;;;;20.05;12.93;;;14.80;95.90;;;;;;5043495;28;20085;-45
2022/03/13 11:55:11;;;;;;;20.92;12.65;;;14.80;96.30;;;;;;5040542;28;20072;-42
2022/03/13 11:57:42;;;;;;;19.50;12.52;;;14.80;96.10;;;;;;5042844;28;20481;-41
2022/03/13 12:00:11;;;;;;;21.25;13.23;;;14.90;95.60;;;;;;5042849;28;20116;-43
2022/03/13 12:02:46;;;;;;;20.23;12.52;;;15.60;95.00;;;;;;5042034;28;20079;-44
2022/03/13 12:05:28;;;;;;;20.50;13.38;;;16.00;92.50;;;;;;5043177;28;20400;-45
2022/03/13 12:07:56;;;;;;;20.45;12.75;;;16.30;93.10;;;;;;5043399;28;20461;-43
2022/03/13 12:10:35;;;;;;;18.23;12.15;;;16.20;91.10;;;;;;5042271;28;20037;-43
2022/03/13 12:13:08;;;;;;;20.05;12.40;;;16.40;92.00;;;;;;5044350;28;20519;-45
2022/03/13 12:15:35;;;;;;;18.30;12.57;;;16.50;90.50;;;;;;5043524;28;20055;-43
2022/03/13 12:18:17;;;;;;;19.10;12.30;;;16.60;90.70;;;;;;5046093;28;20055;-44
2022/03/13 12:20:45;;;;;;;23.05;12.90;;;16.80;91.10;;;;;;5044126;28;20052;-45
2022/03/13 12:23:10;;;;;;;18.63;12.00;;;16.90;90.70;;;;;;5047891;28;20460;-43
2022/03/13 12:25:36;;;;;;;16.27;11.43;;;17.00;87.60;;;;;;5051148;28;20041;-44
2022/03/13 12:28:03;;;;;;;18.08;11.68;;;17.10;88.10;;;;;;5051771;28;20039;-42
2022/03/13 12:30:32;;;;;;;18.80;11.25;;;17.40;87.20;;;;;;5052877;28;20056;-41
2022/03/13 12:32:59;;;;;;;15.75;10.48;;;17.50;88.60;;;;;;5052550;28;20029;-47
2022/03/13 12:35:26;;;;;;;20.00;12.20;;;17.40;81.90;;;;;;5050157;28;20096;-47